Time;durP1;ratioP1;P1;durP2;ratioP2;P2;SDS_P1;SDS_P2;PMS_P1;PMS_P2;Temp;Humidity;BMP_temperature;BMP_pressure;BME280_temperature;BME280_humidity;BME280_pressure;Samples;Min_cycle;Max_cycle;Signal;HPM_P1;HPM_P2
2022/03/01 00:01:52;;;;;;;15.70;11.15;;;2.90;99.90;;;;;;4990918;28;20126;-81
2022/03/01 00:04:18;;;;;;;16.70;11.30;;;2.90;99.90;;;;;;4992133;28;20061;-82
2022/03/01 00:06:44;;;;;;;16.88;11.73;;;2.80;99.90;;;;;;4991969;28;20042;-80
2022/03/01 00:09:10;;;;;;;14.13;9.48;;;2.70;99.90;;;;;;4991643;28;20049;-80
2022/03/01 00:11:35;;;;;;;16.27;12.00;;;2.70;99.90;;;;;;4990782;28;20507;-79
2022/03/01 00:14:02;;;;;;;17.30;12.05;;;2.60;99.90;;;;;;4974510;28;20408;-81
2022/03/01 00:16:27;;;;;;;15.45;10.07;;;2.60;99.90;;;;;;4991051;28;20049;-80
2022/03/01 00:18:53;;;;;;;16.30;10.93;;;2.60;99.90;;;;;;4992477;28;20047;-80
2022/03/01 00:21:19;;;;;;;19.50;11.45;;;2.70;99.90;;;;;;4992321;28;20068;-79
2022/03/01 00:23:44;;;;;;;19.73;13.55;;;2.60;99.90;;;;;;4992432;28;20443;-80
2022/03/01 00:26:10;;;;;;;21.08;12.18;;;2.60;99.90;;;;;;4990829;28;20051;-79
2022/03/01 00:28:36;;;;;;;18.73;10.55;;;2.60;99.90;;;;;;4990637;28;20054;-80
2022/03/01 00:31:03;;;;;;;15.90;11.50;;;2.50;99.90;;;;;;4974212;28;20073;-79
2022/03/01 00:33:29;;;;;;;19.38;11.25;;;2.60;99.90;;;;;;4990661;28;20081;-80
2022/03/01 00:35:55;;;;;;;17.48;12.02;;;2.60;99.90;;;;;;4991802;28;20088;-80
2022/03/01 00:38:20;;;;;;;21.02;11.73;;;2.60;99.90;;;;;;4993604;28;20038;-76
2022/03/01 00:40:46;;;;;;;17.77;11.77;;;2.60;99.90;;;;;;4990420;28;20049;-79
2022/03/01 00:43:11;;;;;;;17.45;11.48;;;2.60;99.90;;;;;;4992045;28;20501;-78
2022/03/01 00:45:37;;;;;;;17.98;11.52;;;2.60;99.90;;;;;;4993130;28;20039;-79
2022/03/01 00:48:03;;;;;;;15.55;10.13;;;2.60;99.90;;;;;;4990347;28;20088;-79
2022/03/01 00:50:28;;;;;;;19.85;12.52;;;2.60;99.90;;;;;;4988915;28;20066;-80
2022/03/01 00:52:54;;;;;;;17.90;11.27;;;2.50;99.90;;;;;;4992043;28;20468;-79
2022/03/01 00:55:20;;;;;;;17.65;12.90;;;2.50;99.90;;;;;;4989997;28;20042;-81
2022/03/01 00:57:45;;;;;;;15.60;11.48;;;2.60;99.90;;;;;;4989948;28;20673;-81
2022/03/01 01:00:12;;;;;;;19.13;11.73;;;2.50;99.90;;;;;;4990460;28;20054;-81
2022/03/01 01:02:38;;;;;;;18.83;11.57;;;2.50;99.90;;;;;;4977369;28;20047;-80
2022/03/01 01:05:04;;;;;;;19.90;12.20;;;2.50;99.90;;;;;;4978709;28;20054;-79
2022/03/01 01:07:30;;;;;;;17.08;12.05;;;2.50;99.90;;;;;;4973914;28;20050;-79
2022/03/01 01:09:55;;;;;;;18.90;12.73;;;2.50;99.90;;;;;;4977005;28;20038;-71
2022/03/01 01:12:21;;;;;;;21.00;13.25;;;2.40;99.90;;;;;;4991080;28;20497;-79
2022/03/01 01:14:47;;;;;;;20.95;11.85;;;2.40;99.90;;;;;;4991071;28;20054;-79
2022/03/01 01:17:12;;;;;;;17.60;11.38;;;2.30;99.90;;;;;;4988859;28;20065;-81
2022/03/01 01:19:38;;;;;;;16.10;10.73;;;2.40;99.90;;;;;;4988362;28;20046;-81
2022/03/01 01:24:48;;;;;;;16.80;11.10;;;2.30;99.90;;;;;;4990974;28;20046;-79
2022/03/01 01:27:13;;;;;;;16.13;11.60;;;2.20;99.90;;;;;;4989003;28;20054;-79
2022/03/01 01:29:39;;;;;;;23.88;10.90;;;2.20;99.90;;;;;;4987121;28;20104;-79
2022/03/01 01:32:05;;;;;;;19.02;11.68;;;2.10;99.90;;;;;;4990515;28;20035;-79
2022/03/01 01:34:31;;;;;;;17.00;11.82;;;2.10;99.90;;;;;;4989756;28;20133;-78
2022/03/01 01:36:56;;;;;;;18.15;11.75;;;2.10;99.90;;;;;;4990324;28;20513;-79
2022/03/01 01:39:22;;;;;;;20.20;14.05;;;2.10;99.90;;;;;;4990408;28;20049;-80
2022/03/01 01:41:47;;;;;;;19.42;11.85;;;2.10;99.90;;;;;;4987775;28;20041;-80
2022/03/01 01:44:13;;;;;;;16.98;11.85;;;2.10;99.90;;;;;;4990179;28;20392;-80
2022/03/01 01:46:38;;;;;;;15.30;12.02;;;2.10;99.90;;;;;;4988286;28;20058;-80
2022/03/01 01:49:04;;;;;;;19.10;13.40;;;2.10;99.90;;;;;;4980017;28;20042;-80
2022/03/01 01:51:29;;;;;;;20.42;12.98;;;2.00;99.90;;;;;;4987386;28;20057;-80
2022/03/01 01:53:55;;;;;;;16.42;11.35;;;2.10;99.90;;;;;;4991064;28;20049;-70
2022/03/01 01:56:21;;;;;;;18.90;11.32;;;2.00;99.90;;;;;;4989649;28;20685;-79
2022/03/01 01:58:47;;;;;;;17.58;12.60;;;2.00;99.90;;;;;;4991944;28;20529;-79
2022/03/01 02:01:13;;;;;;;23.92;12.90;;;2.10;99.90;;;;;;4989651;28;20529;-80
2022/03/01 02:03:38;;;;;;;17.73;12.20;;;2.10;99.90;;;;;;4989411;28;20073;-79
2022/03/01 02:06:04;;;;;;;21.65;13.07;;;2.10;99.90;;;;;;4990076;28;20078;-78
2022/03/01 02:08:33;;;;;;;20.90;12.52;;;2.10;99.90;;;;;;4989213;28;20053;-78
2022/03/01 02:11:00;;;;;;;18.85;11.52;;;2.20;99.90;;;;;;4989442;28;20506;-77
2022/03/01 02:13:27;;;;;;;17.63;11.23;;;2.20;99.90;;;;;;4990519;28;20054;-70
2022/03/01 02:15:54;;;;;;;19.52;12.52;;;2.20;99.90;;;;;;4989420;28;20042;-80
2022/03/01 02:18:21;;;;;;;20.40;12.52;;;2.20;99.90;;;;;;4987267;28;20161;-79
2022/03/01 02:20:47;;;;;;;16.20;11.85;;;2.20;99.90;;;;;;4988321;28;20042;-79
2022/03/01 02:23:13;;;;;;;19.20;13.23;;;2.20;99.90;;;;;;4987397;28;20049;-78
2022/03/01 02:25:39;;;;;;;21.10;13.60;;;2.20;99.90;;;;;;4987182;28;20038;-78
2022/03/01 02:28:05;;;;;;;19.10;11.80;;;2.20;99.90;;;;;;4989672;28;20047;-78
2022/03/01 02:30:31;;;;;;;15.93;11.63;;;2.20;99.90;;;;;;4988233;28;20070;-80
2022/03/01 02:32:57;;;;;;;18.75;12.27;;;2.20;99.90;;;;;;4989056;28;20469;-78
2022/03/01 02:35:23;;;;;;;16.90;10.95;;;2.20;99.90;;;;;;4988431;28;20074;-77
2022/03/01 02:37:48;;;;;;;17.92;10.95;;;2.20;99.90;;;;;;4987723;28;20397;-79
2022/03/01 02:40:15;;;;;;;18.92;13.15;;;2.30;99.90;;;;;;4988435;28;20206;-78
2022/03/01 02:42:42;;;;;;;19.65;12.10;;;2.20;99.90;;;;;;4989465;28;20051;-79
2022/03/01 02:45:10;;;;;;;25.10;13.10;;;2.20;99.90;;;;;;4990483;28;20157;-78
2022/03/01 02:47:36;;;;;;;17.40;12.45;;;2.20;99.90;;;;;;4972131;28;20049;-79
2022/03/01 02:50:02;;;;;;;22.40;12.88;;;2.20;99.90;;;;;;4990119;28;20497;-79
2022/03/01 02:52:28;;;;;;;19.40;12.07;;;2.20;99.90;;;;;;4986761;28;20082;-78
2022/03/01 02:54:53;;;;;;;18.55;12.35;;;2.20;99.90;;;;;;4988286;28;20505;-79
2022/03/01 02:57:19;;;;;;;20.67;12.55;;;2.20;99.90;;;;;;4988680;28;20066;-79
2022/03/01 02:59:45;;;;;;;18.63;11.15;;;2.20;99.90;;;;;;4992669;28;20575;-79
2022/03/01 03:02:12;;;;;;;14.07;11.68;;;2.20;99.90;;;;;;4984497;28;20042;-79
2022/03/01 03:04:39;;;;;;;16.08;11.35;;;2.20;99.90;;;;;;4988195;28;20046;-81
2022/03/01 03:07:05;;;;;;;20.58;13.27;;;2.20;99.90;;;;;;4991459;28;20101;-80
2022/03/01 03:09:30;;;;;;;18.00;11.68;;;2.20;99.90;;;;;;4992163;28;20034;-80
2022/03/01 03:11:56;;;;;;;22.23;14.18;;;2.20;99.90;;;;;;4979243;28;20042;-80
2022/03/01 03:14:22;;;;;;;14.88;11.75;;;2.20;99.90;;;;;;4992321;28;20413;-80
2022/03/01 03:16:48;;;;;;;16.85;11.15;;;2.20;99.90;;;;;;4989058;28;20100;-79
2022/03/01 03:19:15;;;;;;;20.00;12.85;;;2.20;99.90;;;;;;4991221;28;20058;-79
2022/03/01 03:21:45;;;;;;;18.38;12.43;;;2.20;99.90;;;;;;4992383;28;20092;-79
2022/03/01 03:24:10;;;;;;;16.55;12.05;;;2.20;99.90;;;;;;4993223;28;20042;-78
2022/03/01 03:26:37;;;;;;;16.45;11.38;;;2.20;99.90;;;;;;4990469;28;20554;-80
2022/03/01 03:29:08;;;;;;;17.45;12.07;;;2.20;99.90;;;;;;4989252;28;20042;-80
2022/03/01 03:31:37;;;;;;;21.08;13.05;;;2.20;99.90;;;;;;4992096;28;20070;-79
2022/03/01 03:34:06;;;;;;;20.57;12.47;;;2.20;99.90;;;;;;4992676;28;20046;-79
2022/03/01 03:36:34;;;;;;;20.70;13.15;;;2.20;99.90;;;;;;4991589;28;20066;-79
2022/03/01 03:39:00;;;;;;;19.80;12.27;;;2.20;99.90;;;;;;4991861;28;20042;-82
2022/03/01 03:41:26;;;;;;;16.20;12.43;;;2.20;99.90;;;;;;4989937;28;20408;-81
2022/03/01 03:43:52;;;;;;;18.20;11.43;;;2.20;99.90;;;;;;4992737;28;20034;-81
2022/03/01 03:46:18;;;;;;;22.02;12.40;;;2.20;99.90;;;;;;4991096;28;20386;-78
2022/03/01 03:48:43;;;;;;;20.13;12.82;;;2.20;99.90;;;;;;4992550;28;20428;-80
2022/03/01 03:51:09;;;;;;;19.70;11.88;;;2.20;99.90;;;;;;4990674;28;20042;-80
2022/03/01 03:53:34;;;;;;;18.27;12.35;;;2.20;99.90;;;;;;4991206;28;20051;-79
2022/03/01 03:56:00;;;;;;;22.00;12.73;;;2.20;99.90;;;;;;4990165;28;20086;-80
2022/03/01 03:58:26;;;;;;;19.80;12.60;;;2.10;99.90;;;;;;4991521;28;20056;-77
2022/03/01 04:00:51;;;;;;;21.83;13.20;;;2.10;99.90;;;;;;4989734;28;20509;-81
2022/03/01 04:03:17;;;;;;;19.88;12.80;;;2.10;99.90;;;;;;4976158;28;20054;-81
2022/03/01 04:05:43;;;;;;;20.15;11.43;;;2.20;99.90;;;;;;4986715;28;20540;-79
2022/03/01 04:08:10;;;;;;;16.05;12.45;;;2.10;99.90;;;;;;4992376;28;20085;-80
2022/03/01 04:10:36;;;;;;;22.38;14.10;;;2.20;99.90;;;;;;4981544;28;20081;-79
2022/03/01 04:13:01;;;;;;;17.48;11.18;;;2.20;99.90;;;;;;4989780;28;20054;-80
2022/03/01 04:15:27;;;;;;;18.95;11.90;;;2.10;99.90;;;;;;4992277;28;20077;-80
2022/03/01 04:17:53;;;;;;;18.00;12.10;;;2.10;99.90;;;;;;4989525;28;20050;-79
2022/03/01 04:20:21;;;;;;;20.83;12.77;;;2.10;99.90;;;;;;4991646;28;20065;-79
2022/03/01 04:22:47;;;;;;;18.23;11.98;;;2.10;99.90;;;;;;4991986;28;20177;-79
2022/03/01 04:25:13;;;;;;;17.50;11.95;;;2.10;99.90;;;;;;4991125;28;20137;-80
2022/03/01 04:27:39;;;;;;;19.23;12.18;;;2.20;99.90;;;;;;4990267;28;20038;-79
2022/03/01 04:30:06;;;;;;;16.20;11.45;;;2.10;99.90;;;;;;4987913;28;20524;-79
2022/03/01 04:32:33;;;;;;;18.17;12.50;;;2.10;99.90;;;;;;4985466;28;20113;-79
2022/03/01 04:34:58;;;;;;;17.13;11.93;;;2.10;99.90;;;;;;4991723;28;20042;-80
2022/03/01 04:37:24;;;;;;;18.95;13.13;;;2.10;99.90;;;;;;4992431;28;20073;-79
2022/03/01 04:39:50;;;;;;;16.63;12.23;;;2.20;99.90;;;;;;4989329;28;20096;-78
2022/03/01 04:42:16;;;;;;;18.65;11.43;;;2.10;99.90;;;;;;4990446;28;20054;-78
2022/03/01 04:44:42;;;;;;;20.23;12.73;;;2.20;99.90;;;;;;4992287;28;20520;-79
2022/03/01 04:47:07;;;;;;;22.95;13.90;;;2.20;99.90;;;;;;4992994;28;20073;-81
2022/03/01 04:49:33;;;;;;;17.92;12.52;;;2.10;99.90;;;;;;4993982;28;20132;-80
2022/03/01 04:51:59;;;;;;;18.27;12.00;;;2.10;99.90;;;;;;4991479;28;20133;-81
2022/03/01 04:54:24;;;;;;;20.50;14.60;;;2.20;99.90;;;;;;4989558;28;20097;-79
2022/03/01 04:56:50;;;;;;;20.17;12.52;;;2.20;99.90;;;;;;4989733;28;20048;-79
2022/03/01 04:59:16;;;;;;;21.70;13.38;;;2.20;99.90;;;;;;4989743;28;20133;-80
2022/03/01 05:01:42;;;;;;;19.83;13.68;;;2.20;99.90;;;;;;4984887;28;20480;-79
2022/03/01 05:04:07;;;;;;;16.83;11.90;;;2.20;99.90;;;;;;4972651;28;20058;-81
2022/03/01 05:06:33;;;;;;;25.88;13.27;;;2.20;99.90;;;;;;4977427;28;20038;-81
2022/03/01 05:08:59;;;;;;;18.58;12.73;;;2.20;99.90;;;;;;4989704;28;20400;-80
2022/03/01 05:11:24;;;;;;;28.25;13.32;;;2.20;99.90;;;;;;4983515;28;20049;-79
2022/03/01 05:13:50;;;;;;;20.95;12.13;;;2.20;99.90;;;;;;4990533;28;20062;-80
2022/03/01 05:16:15;;;;;;;20.00;13.40;;;2.20;99.90;;;;;;4988059;28;20497;-79
2022/03/01 05:18:41;;;;;;;18.40;13.20;;;2.20;99.90;;;;;;4988979;28;20077;-81
2022/03/01 05:21:07;;;;;;;21.08;13.82;;;2.20;99.90;;;;;;4990277;28;20042;-79
2022/03/01 05:23:32;;;;;;;16.75;12.15;;;2.10;99.90;;;;;;4990625;28;20075;-79
2022/03/01 05:25:59;;;;;;;18.95;12.52;;;2.10;99.90;;;;;;4988963;28;20394;-80
2022/03/01 05:28:25;;;;;;;26.13;13.65;;;2.10;99.90;;;;;;4990163;28;20546;-80
2022/03/01 05:30:50;;;;;;;21.13;13.23;;;2.10;99.90;;;;;;4988232;28;20046;-80
2022/03/01 05:33:16;;;;;;;19.95;13.10;;;2.20;99.90;;;;;;4990983;28;20049;-80
2022/03/01 05:35:43;;;;;;;20.83;13.10;;;2.20;99.90;;;;;;4990435;28;20129;-78
2022/03/01 05:38:10;;;;;;;18.92;13.18;;;2.20;99.90;;;;;;4990829;28;20108;-79
2022/03/01 05:40:36;;;;;;;18.90;13.10;;;2.20;99.90;;;;;;4986417;28;20401;-78
2022/03/01 05:43:03;;;;;;;19.17;12.52;;;2.20;99.90;;;;;;4988570;28;20034;-78
2022/03/01 05:45:30;;;;;;;17.90;12.25;;;2.30;99.90;;;;;;4989893;28;20895;-79
2022/03/01 05:47:57;;;;;;;19.88;12.95;;;2.30;99.90;;;;;;4990104;28;20053;-75
2022/03/01 05:50:23;;;;;;;21.95;12.73;;;2.30;99.90;;;;;;4991277;28;20400;-79
2022/03/01 05:52:50;;;;;;;17.40;12.68;;;2.40;99.90;;;;;;4988391;28;20042;-79
2022/03/01 05:55:15;;;;;;;16.70;13.07;;;2.30;99.90;;;;;;4986952;28;20082;-79
2022/03/01 05:57:42;;;;;;;18.65;11.88;;;2.30;99.90;;;;;;4987091;28;20099;-80
2022/03/01 06:00:12;;;;;;;15.85;11.65;;;2.30;99.90;;;;;;4988557;28;20077;-80
2022/03/01 06:02:39;;;;;;;20.60;12.68;;;2.30;99.90;;;;;;4973967;28;20053;-79
2022/03/01 06:05:05;;;;;;;16.73;12.45;;;2.30;99.90;;;;;;4971704;28;20378;-79
2022/03/01 06:07:31;;;;;;;20.55;12.95;;;2.30;99.90;;;;;;4984582;28;20044;-80
2022/03/01 06:09:56;;;;;;;22.45;13.82;;;2.30;99.90;;;;;;4985859;28;20092;-79
2022/03/01 06:12:22;;;;;;;20.30;12.88;;;2.30;99.90;;;;;;4990033;28;20046;-79
2022/03/01 06:14:47;;;;;;;21.45;14.43;;;2.30;99.90;;;;;;4989116;28;20074;-79
2022/03/01 06:17:13;;;;;;;19.90;12.30;;;2.30;99.90;;;;;;4988333;28;20409;-80
2022/03/01 06:19:38;;;;;;;23.42;14.90;;;2.30;99.90;;;;;;4990279;28;20046;-79
2022/03/01 06:22:07;;;;;;;22.10;12.30;;;2.30;99.90;;;;;;4989716;28;20085;-79
2022/03/01 06:24:38;;;;;;;16.35;12.15;;;2.30;99.90;;;;;;4972000;28;20046;-80
2022/03/01 06:27:05;;;;;;;21.27;14.23;;;2.30;99.90;;;;;;4989452;28;20038;-80
2022/03/01 06:29:31;;;;;;;21.40;12.82;;;2.40;99.90;;;;;;4989561;28;20058;-80
2022/03/01 06:31:57;;;;;;;19.63;12.60;;;2.40;99.90;;;;;;4986212;28;20512;-80
2022/03/01 06:34:22;;;;;;;19.70;13.15;;;2.40;99.90;;;;;;4992608;28;20057;-80
2022/03/01 06:36:48;;;;;;;20.85;13.77;;;2.40;99.90;;;;;;4992388;28;20042;-80
2022/03/01 06:39:14;;;;;;;20.67;13.73;;;2.40;99.90;;;;;;4992556;28;20085;-78
2022/03/01 06:41:39;;;;;;;20.15;14.55;;;2.40;99.90;;;;;;4991883;28;20440;-79
2022/03/01 06:44:05;;;;;;;19.42;12.65;;;2.50;99.90;;;;;;4993565;28;20409;-79
2022/03/01 06:46:30;;;;;;;23.13;14.85;;;2.50;99.90;;;;;;4991542;28;20034;-78
2022/03/01 06:48:56;;;;;;;19.10;14.55;;;2.50;99.90;;;;;;4993965;28;20125;-77
2022/03/01 06:51:21;;;;;;;22.15;13.63;;;2.60;99.90;;;;;;4992765;28;20042;-78
2022/03/01 06:53:47;;;;;;;18.23;12.98;;;2.60;99.90;;;;;;4993830;28;20405;-78
2022/03/01 06:56:13;;;;;;;19.02;13.68;;;2.70;99.90;;;;;;4991639;28;20034;-79
2022/03/01 06:58:38;;;;;;;17.42;12.60;;;2.70;99.90;;;;;;4992199;28;20046;-78
2022/03/01 07:01:04;;;;;;;19.80;12.63;;;2.70;99.90;;;;;;4991052;28;20058;-77
2022/03/01 07:03:29;;;;;;;22.05;12.10;;;2.70;99.90;;;;;;4991940;28;20073;-78
2022/03/01 07:05:55;;;;;;;21.58;13.73;;;2.80;99.90;;;;;;4992066;28;20050;-79
2022/03/01 07:08:22;;;;;;;22.88;13.40;;;2.80;99.90;;;;;;4993442;28;20046;-79
2022/03/01 07:10:49;;;;;;;19.92;13.45;;;2.80;99.90;;;;;;4992234;28;20092;-78
2022/03/01 07:13:14;;;;;;;21.75;14.10;;;2.80;99.90;;;;;;4992668;28;20092;-78
2022/03/01 07:15:40;;;;;;;21.42;13.93;;;2.80;99.90;;;;;;4991546;28;20042;-80
2022/03/01 07:18:05;;;;;;;29.20;14.90;;;2.90;99.90;;;;;;4992777;28;20046;-78
2022/03/01 07:20:32;;;;;;;26.67;15.30;;;2.90;99.90;;;;;;4991934;28;20511;-79
2022/03/01 07:22:57;;;;;;;18.38;14.27;;;2.90;99.90;;;;;;4991699;28;20580;-79
2022/03/01 07:25:23;;;;;;;23.83;14.13;;;3.00;99.90;;;;;;4993979;28;20133;-78
2022/03/01 07:27:51;;;;;;;17.70;14.00;;;3.00;99.90;;;;;;4993913;28;20061;-79
2022/03/01 07:30:18;;;;;;;25.52;14.65;;;3.10;99.90;;;;;;4994384;28;20185;-79
2022/03/01 07:32:44;;;;;;;22.52;14.73;;;3.10;99.90;;;;;;4992781;28;20042;-79
2022/03/01 07:35:09;;;;;;;21.70;14.35;;;3.10;99.90;;;;;;4993502;28;20547;-79
2022/03/01 07:37:37;;;;;;;19.17;13.75;;;3.10;99.90;;;;;;4994467;28;20053;-80
2022/03/01 07:40:14;;;;;;;21.20;15.23;;;3.00;99.90;;;;;;4991017;28;20042;-79
2022/03/01 07:42:40;;;;;;;20.50;13.13;;;3.10;99.90;;;;;;4991940;28;20065;-80
2022/03/01 07:45:06;;;;;;;20.10;13.38;;;3.10;99.90;;;;;;4991992;28;20104;-79
2022/03/01 07:47:32;;;;;;;18.85;13.02;;;3.10;99.90;;;;;;4991510;28;20381;-79
2022/03/01 07:49:58;;;;;;;26.63;14.35;;;3.20;99.90;;;;;;4992495;28;20108;-79
2022/03/01 07:52:24;;;;;;;20.48;14.43;;;3.20;99.90;;;;;;4990667;28;20074;-78
2022/03/01 07:54:49;;;;;;;20.50;14.20;;;3.20;99.90;;;;;;4991774;28;20118;-80
2022/03/01 07:57:16;;;;;;;21.55;15.00;;;3.20;99.90;;;;;;4991316;28;20519;-76
2022/03/01 07:59:42;;;;;;;20.98;13.15;;;3.20;99.90;;;;;;4992331;28;20046;-78
2022/03/01 08:02:08;;;;;;;22.92;14.25;;;3.20;99.90;;;;;;4989745;28;20100;-78
2022/03/01 08:04:33;;;;;;;21.67;14.50;;;3.30;99.90;;;;;;4991712;28;20093;-78
2022/03/01 08:06:59;;;;;;;23.33;14.65;;;3.30;99.90;;;;;;4991172;28;20081;-78
2022/03/01 08:09:25;;;;;;;19.92;14.27;;;3.30;99.90;;;;;;4992017;28;20472;-78
2022/03/01 08:11:50;;;;;;;19.77;13.93;;;3.30;99.90;;;;;;4992520;28;20043;-78
2022/03/01 08:14:16;;;;;;;17.63;12.65;;;3.40;99.90;;;;;;4992188;28;20090;-79
2022/03/01 08:16:42;;;;;;;20.95;13.20;;;3.50;99.90;;;;;;4992440;28;20042;-81
2022/03/01 08:19:07;;;;;;;18.92;12.93;;;3.60;99.90;;;;;;4992419;28;20085;-81
2022/03/01 08:21:33;;;;;;;21.10;13.23;;;3.60;99.90;;;;;;4988244;28;20052;-80
2022/03/01 08:23:58;;;;;;;20.77;15.52;;;3.70;99.90;;;;;;4988699;28;20550;-79
2022/03/01 08:26:24;;;;;;;21.75;15.10;;;3.80;99.90;;;;;;4992930;28;20076;-80
2022/03/01 08:28:50;;;;;;;25.92;16.50;;;3.90;99.90;;;;;;4991790;28;20042;-81
2022/03/01 08:31:16;;;;;;;20.58;13.75;;;3.90;99.90;;;;;;4989510;28;20086;-79
2022/03/01 08:33:42;;;;;;;19.58;14.82;;;4.10;99.90;;;;;;4991688;28;20063;-82
2022/03/01 08:36:09;;;;;;;24.83;14.63;;;4.10;99.90;;;;;;4988874;28;20055;-84
2022/03/01 08:38:36;;;;;;;24.55;15.25;;;4.10;99.90;;;;;;4994001;28;20039;-82
2022/03/01 08:41:02;;;;;;;19.10;13.70;;;4.30;99.90;;;;;;4997631;28;20061;-82
2022/03/01 08:43:27;;;;;;;18.65;14.40;;;4.40;99.90;;;;;;4996753;28;20486;-79
2022/03/01 08:45:53;;;;;;;22.63;15.38;;;4.50;99.90;;;;;;4992352;28;20054;-84
2022/03/01 08:48:19;;;;;;;17.27;13.57;;;4.50;99.90;;;;;;5003052;28;20053;-76
2022/03/01 08:50:44;;;;;;;20.75;12.82;;;4.60;99.90;;;;;;4990966;28;20065;-82
2022/03/01 08:53:11;;;;;;;23.90;15.07;;;4.70;99.90;;;;;;4989225;28;20043;-82
2022/03/01 08:55:36;;;;;;;22.20;15.77;;;4.80;99.90;;;;;;4990388;28;20050;-78
2022/03/01 08:58:02;;;;;;;18.40;14.00;;;4.80;99.90;;;;;;4990197;28;20049;-82
2022/03/01 09:00:28;;;;;;;22.83;16.08;;;4.80;99.90;;;;;;4985267;28;20113;-84
2022/03/01 09:02:53;;;;;;;22.25;15.13;;;4.90;99.90;;;;;;4990053;28;20482;-80
2022/03/01 09:05:19;;;;;;;20.35;14.38;;;4.80;99.90;;;;;;4983500;28;20047;-81
2022/03/01 09:07:45;;;;;;;19.73;14.15;;;4.90;99.90;;;;;;4982704;28;20809;-83
2022/03/01 09:10:10;;;;;;;21.63;15.27;;;4.90;99.90;;;;;;4972172;28;20047;-83
2022/03/01 09:12:36;;;;;;;20.02;14.15;;;4.90;99.90;;;;;;4985534;28;20035;-83
2022/03/01 09:15:04;;;;;;;20.52;15.52;;;4.90;99.90;;;;;;4989787;28;20054;-85
2022/03/01 09:17:29;;;;;;;23.55;14.88;;;5.00;99.90;;;;;;4988618;28;20544;-85
2022/03/01 09:19:55;;;;;;;21.58;13.25;;;4.90;99.90;;;;;;4992161;28;20082;-86
2022/03/01 09:22:21;;;;;;;26.02;15.55;;;4.90;99.90;;;;;;4992127;28;20070;-86
2022/03/01 09:24:46;;;;;;;23.20;16.17;;;4.90;99.90;;;;;;4985200;28;20054;-86
2022/03/01 09:27:12;;;;;;;19.13;14.55;;;5.00;99.90;;;;;;4989990;28;20562;-86
2022/03/01 09:29:38;;;;;;;22.35;14.77;;;5.00;99.90;;;;;;4990910;28;20050;-86
2022/03/01 09:32:04;;;;;;;17.25;12.82;;;5.10;99.90;;;;;;4990147;28;20038;-83
2022/03/01 09:34:30;;;;;;;20.30;14.93;;;5.20;99.90;;;;;;4991166;28;20050;-86
2022/03/01 09:36:56;;;;;;;18.98;13.88;;;5.30;99.90;;;;;;4990489;28;20038;-71
2022/03/01 09:39:22;;;;;;;20.08;14.80;;;5.30;99.90;;;;;;4971576;28;20482;-85
2022/03/01 09:41:48;;;;;;;19.85;14.32;;;5.40;99.90;;;;;;4989304;28;20053;-86
2022/03/01 09:44:16;;;;;;;17.85;12.85;;;5.60;99.90;;;;;;4990112;28;20058;-86
2022/03/01 09:46:43;;;;;;;19.90;13.25;;;5.60;99.90;;;;;;4989678;28;20447;-85
2022/03/01 09:49:09;;;;;;;21.33;15.27;;;5.80;99.90;;;;;;4988173;28;20412;-85
2022/03/01 09:51:36;;;;;;;27.40;14.98;;;5.80;99.90;;;;;;4991013;28;20089;-84
2022/03/01 09:54:02;;;;;;;19.10;13.60;;;5.90;99.90;;;;;;4988542;28;20039;-85
2022/03/01 09:56:28;;;;;;;20.88;14.93;;;5.90;99.90;;;;;;4989143;28;20073;-84
2022/03/01 09:58:55;;;;;;;17.65;13.00;;;5.80;99.90;;;;;;4988615;28;20042;-85
2022/03/01 10:01:22;;;;;;;17.70;13.52;;;5.90;99.90;;;;;;4980321;28;20074;-85
2022/03/01 10:03:49;;;;;;;20.67;14.88;;;6.00;99.90;;;;;;4984216;28;20085;-85
2022/03/01 10:06:17;;;;;;;23.08;15.25;;;6.10;99.90;;;;;;4974352;28;20050;-84
2022/03/01 10:08:44;;;;;;;22.58;15.20;;;6.20;99.90;;;;;;4981511;28;20449;-85
2022/03/01 10:11:10;;;;;;;20.88;13.88;;;6.30;99.90;;;;;;4988991;28;20061;-85
2022/03/01 10:13:40;;;;;;;18.50;14.77;;;6.30;99.90;;;;;;4990092;28;20129;-85
2022/03/01 10:16:11;;;;;;;21.70;14.27;;;6.50;99.90;;;;;;4984989;28;20046;-84
2022/03/01 10:18:39;;;;;;;19.10;14.15;;;6.70;99.90;;;;;;4992599;28;20038;-84
2022/03/01 10:21:10;;;;;;;22.77;14.98;;;6.60;99.90;;;;;;5000833;28;20042;-83
2022/03/01 10:23:38;;;;;;;21.42;14.65;;;6.80;99.90;;;;;;4978389;28;20054;-84
2022/03/01 10:26:16;;;;;;;20.13;14.23;;;6.60;99.90;;;;;;4990345;28;20045;-83
2022/03/01 10:28:43;;;;;;;19.65;15.57;;;6.70;99.90;;;;;;5003907;28;20057;-84
2022/03/01 10:31:19;;;;;;;19.00;14.60;;;6.70;99.90;;;;;;4994785;28;20046;-84
2022/03/01 10:34:08;;;;;;;19.65;14.82;;;6.70;99.90;;;;;;4988588;28;20492;-84
2022/03/01 10:36:44;;;;;;;22.05;15.07;;;6.80;99.90;;;;;;4990716;28;20046;-85
2022/03/01 10:39:13;;;;;;;20.38;14.57;;;6.80;99.90;;;;;;4986064;28;20460;-84
2022/03/01 10:41:43;;;;;;;20.65;13.43;;;6.70;99.90;;;;;;4986225;28;20081;-84
2022/03/01 10:44:15;;;;;;;19.33;14.65;;;6.70;99.90;;;;;;4989840;28;20051;-83
2022/03/01 10:46:43;;;;;;;21.77;14.98;;;6.70;99.90;;;;;;4975803;28;20158;-84
2022/03/01 10:49:11;;;;;;;26.50;14.98;;;6.70;99.90;;;;;;4985726;28;20042;-84
2022/03/01 10:52:03;;;;;;;23.92;15.82;;;6.80;99.90;;;;;;4990209;28;20096;-86
2022/03/01 10:54:35;;;;;;;20.77;12.82;;;6.80;99.90;;;;;;4988214;28;20485;-86
2022/03/01 10:57:03;;;;;;;20.27;14.52;;;6.90;99.90;;;;;;4989656;28;20039;-84
2022/03/01 10:59:34;;;;;;;20.67;14.82;;;7.00;99.90;;;;;;4985343;28;20061;-84
2022/03/01 11:02:01;;;;;;;21.15;14.18;;;7.10;99.90;;;;;;4969695;28;20064;-85
2022/03/01 11:04:27;;;;;;;26.65;14.70;;;7.10;99.90;;;;;;4978053;28;20100;-74
2022/03/01 11:07:03;;;;;;;20.55;13.70;;;7.10;99.90;;;;;;4992262;28;20066;-85
2022/03/01 11:09:33;;;;;;;21.50;14.02;;;7.10;99.90;;;;;;4984556;28;20081;-85
2022/03/01 11:12:00;;;;;;;21.35;14.93;;;7.10;99.90;;;;;;4994670;28;20089;-85
2022/03/01 11:14:42;;;;;;;38.78;15.68;;;6.90;99.90;;;;;;4990129;28;20133;-71
2022/03/01 11:17:28;;;;;;;20.83;15.93;;;6.90;99.90;;;;;;4985248;28;20121;-85
2022/03/01 11:20:14;;;;;;;20.08;14.50;;;6.90;99.90;;;;;;4982413;28;20049;-84
2022/03/01 11:22:41;;;;;;;19.58;12.65;;;6.90;99.90;;;;;;4993232;28;20543;-85
2022/03/01 11:25:14;;;;;;;24.13;14.35;;;6.90;99.90;;;;;;4991892;28;20447;-86
2022/03/01 11:27:48;;;;;;;20.85;16.00;;;6.80;99.90;;;;;;4989669;28;20436;-81
2022/03/01 11:30:15;;;;;;;19.33;13.88;;;6.80;99.90;;;;;;4990470;28;20054;-88
2022/03/01 11:32:44;;;;;;;22.08;16.15;;;6.80;99.90;;;;;;4994696;28;20097;-87
2022/03/01 11:35:41;;;;;;;18.75;14.77;;;6.80;99.90;;;;;;4990061;28;20046;-88
2022/03/01 11:38:18;;;;;;;18.58;13.80;;;6.80;99.90;;;;;;4987252;28;20174;-90
2022/03/01 11:40:50;;;;;;;22.60;14.68;;;6.80;99.90;;;;;;4989671;28;20085;-90
2022/03/01 11:43:22;;;;;;;22.65;15.90;;;6.80;99.90;;;;;;4992196;28;20042;-91
2022/03/01 11:45:53;;;;;;;22.35;16.95;;;6.80;99.90;;;;;;4997282;28;20042;-90
2022/03/01 11:48:28;;;;;;;21.75;15.57;;;6.70;99.90;;;;;;4992932;28;20045;-89
2022/03/01 11:50:59;;;;;;;23.00;16.33;;;6.80;99.90;;;;;;4989028;28;20137;-90
2022/03/01 11:53:28;;;;;;;24.50;15.95;;;6.80;99.90;;;;;;4992430;28;20046;-88
2022/03/01 11:55:58;;;;;;;23.45;16.90;;;6.90;99.90;;;;;;4993935;28;20049;-89
2022/03/01 11:58:25;;;;;;;23.45;16.23;;;6.80;99.90;;;;;;4993660;28;20062;-82
2022/03/01 12:00:51;;;;;;;22.45;16.77;;;6.80;99.90;;;;;;4990478;28;20129;-89
2022/03/01 12:03:22;;;;;;;22.98;16.65;;;6.90;99.90;;;;;;4989888;28;20608;-88
2022/03/01 12:05:49;;;;;;;21.35;15.75;;;7.00;99.90;;;;;;4989679;28;20077;-88
2022/03/01 12:08:16;;;;;;;22.23;17.23;;;7.10;99.90;;;;;;4991065;28;20142;-89
2022/03/01 12:10:53;;;;;;;24.35;17.67;;;7.00;99.90;;;;;;4993193;28;20196;-88
2022/03/01 12:13:19;;;;;;;21.88;15.63;;;7.10;99.90;;;;;;4985007;28;20082;-87
2022/03/01 12:15:55;;;;;;;22.65;15.93;;;7.00;99.90;;;;;;4987063;28;20046;-88
2022/03/01 12:18:30;;;;;;;30.35;17.92;;;7.10;99.90;;;;;;4990091;28;20042;-90
2022/03/01 12:21:08;;;;;;;27.42;18.58;;;7.20;99.90;;;;;;4991522;28;20073;-71
2022/03/01 12:23:37;;;;;;;23.23;18.20;;;7.20;99.90;;;;;;4992260;28;20405;-89
2022/03/01 12:26:05;;;;;;;21.75;17.77;;;7.20;99.90;;;;;;4992743;28;20050;-87
2022/03/01 12:28:41;;;;;;;22.98;16.38;;;7.30;99.90;;;;;;4991800;28;20047;-87
2022/03/01 12:31:23;;;;;;;24.45;18.20;;;7.30;99.90;;;;;;4991113;28;20106;-87
2022/03/01 12:33:54;;;;;;;25.48;18.95;;;7.40;99.90;;;;;;4990561;28;20443;-86
2022/03/01 12:36:24;;;;;;;22.75;16.42;;;7.40;99.90;;;;;;4992965;28;20074;-88
2022/03/01 12:38:54;;;;;;;25.70;17.95;;;7.50;99.90;;;;;;4992236;28;20053;-87